createdAt,value
2022-09-24T00:00:36.186Z,99.90
2022-09-24T00:04:40.906Z,99.90
2022-09-24T00:08:45.629Z,99.90
2022-09-24T00:12:49.219Z,99.90
2022-09-24T00:16:53.891Z,99.90
2022-09-24T00:20:58.813Z,99.90
2022-09-24T00:25:22.672Z,99.90
2022-09-24T00:29:26.916Z,99.90
2022-09-24T00:33:30.500Z,99.90
2022-09-24T00:37:35.022Z,99.90
2022-09-24T00:41:42.323Z,99.90
2022-09-24T00:45:45.494Z,99.90
2022-09-24T00:49:50.796Z,99.90
2022-09-24T00:54:00.310Z,99.90
2022-09-24T00:58:06.742Z,99.90
2022-09-24T01:02:10.157Z,99.90
2022-09-24T01:06:13.892Z,99.90
2022-09-24T01:10:37.078Z,99.90
2022-09-24T01:14:53.942Z,99.90
2022-09-24T01:19:18.567Z,99.90
2022-09-24T01:23:51.911Z,99.90
2022-09-24T01:28:13.185Z,99.90
2022-09-24T01:32:28.881Z,99.90
2022-09-24T01:36:36.339Z,99.90
2022-09-24T01:40:41.309Z,99.90
2022-09-24T01:44:45.534Z,99.90
2022-09-24T01:48:50.936Z,99.90
2022-09-24T01:52:57.177Z,99.90
2022-09-24T01:57:09.732Z,99.90
2022-09-24T02:01:18.665Z,99.90
2022-09-24T02:05:34.667Z,99.90
2022-09-24T02:09:41.250Z,99.90
2022-09-24T02:13:48.209Z,99.90
2022-09-24T02:17:55.928Z,99.90
2022-09-24T02:22:01.410Z,99.90
2022-09-24T02:26:06.744Z,99.90
2022-09-24T02:30:17.444Z,99.90
2022-09-24T02:34:25.708Z,99.90
2022-09-24T02:38:30.608Z,99.90
2022-09-24T02:42:33.898Z,99.90
2022-09-24T02:46:42.153Z,99.90
2022-09-24T02:50:45.353Z,99.90
2022-09-24T02:54:51.402Z,99.90
2022-09-24T02:58:54.627Z,99.90
2022-09-24T03:02:58.283Z,99.90
2022-09-24T03:07:01.620Z,99.90
2022-09-24T03:11:06.702Z,99.90
2022-09-24T03:15:10.857Z,99.90
2022-09-24T03:19:14.099Z,99.90
2022-09-24T03:23:18.446Z,99.90
2022-09-24T03:27:23.244Z,99.90
2022-09-24T03:31:26.605Z,99.90
2022-09-24T03:35:29.813Z,99.90
2022-09-24T03:39:35.063Z,99.90
2022-09-24T03:43:40.290Z,99.90
2022-09-24T03:47:44.965Z,99.90
2022-09-24T03:51:48.117Z,99.90
2022-09-24T03:55:56.868Z,99.90
2022-09-24T04:00:01.885Z,99.90
2022-09-24T04:04:05.975Z,99.90
2022-09-24T04:08:09.228Z,99.90
2022-09-24T04:12:13.286Z,99.90
2022-09-24T04:16:18.156Z,99.90
2022-09-24T04:21:15.958Z,99.90
2022-09-24T04:25:19.974Z,99.90
2022-09-24T04:29:23.331Z,99.90
2022-09-24T04:33:31.978Z,99.90
2022-09-24T04:41:40.710Z,99.90
2022-09-24T04:45:47.149Z,99.90
2022-09-24T04:49:52.958Z,99.90
2022-09-24T04:53:57.062Z,99.90
2022-09-24T04:58:02.869Z,99.90
2022-09-24T05:02:10.217Z,99.90
2022-09-24T05:06:15.389Z,99.90
2022-09-24T05:10:19.030Z,99.90
2022-09-24T05:14:22.380Z,99.90
2022-09-24T05:18:25.545Z,99.90
2022-09-24T05:22:31.550Z,99.90
2022-09-24T05:26:52.353Z,99.90
2022-09-24T05:30:58.600Z,99.90
2022-09-24T05:35:01.894Z,99.90
2022-09-24T05:39:06.539Z,99.90
2022-09-24T05:43:09.945Z,99.90
2022-09-24T05:47:13.829Z,99.90
2022-09-24T05:51:17.120Z,99.90
2022-09-24T05:55:21.682Z,99.90
2022-09-24T05:59:25.103Z,99.90
2022-09-24T06:03:29.714Z,99.90
2022-09-24T06:07:33.061Z,99.90
2022-09-24T06:11:40.757Z,99.90
2022-09-24T06:15:45.254Z,99.90
2022-09-24T06:19:48.669Z,99.90
2022-09-24T06:23:51.901Z,99.90
2022-09-24T06:28:00.708Z,99.90
2022-09-24T06:32:04.568Z,99.90
2022-09-24T06:36:08.321Z,99.90
2022-09-24T06:40:12.072Z,99.90
2022-09-24T06:44:17.593Z,99.90
2022-09-24T06:48:22.695Z,99.90
2022-09-24T06:52:25.960Z,99.90
2022-09-24T06:56:31.152Z,99.90
2022-09-24T07:00:37.182Z,99.90
2022-09-24T07:04:40.455Z,99.90
2022-09-24T07:08:43.799Z,99.90
2022-09-24T07:12:47.079Z,99.90
2022-09-24T07:16:54.080Z,99.90
2022-09-24T07:20:57.901Z,99.90
2022-09-24T07:25:01.115Z,99.90
2022-09-24T07:29:05.475Z,99.90
2022-09-24T07:33:10.468Z,99.90
2022-09-24T07:37:14.249Z,99.90
2022-09-24T07:41:18.412Z,99.90
2022-09-24T07:45:22.050Z,99.90
2022-09-24T07:49:29.169Z,99.90
2022-09-24T07:53:32.580Z,99.90
2022-09-24T07:57:35.787Z,99.90
2022-09-24T08:01:39.978Z,99.90
2022-09-24T08:05:47.981Z,99.90
2022-09-24T08:09:51.495Z,99.90
2022-09-24T08:13:54.753Z,99.90
2022-09-24T08:18:02.653Z,99.90
2022-09-24T08:22:08.901Z,99.90
2022-09-24T08:26:13.154Z,99.90
2022-09-24T08:30:16.455Z,99.90
2022-09-24T08:34:19.691Z,99.90
2022-09-24T08:38:24.432Z,98.20
2022-09-24T08:42:38.289Z,96.20
2022-09-24T08:47:03.658Z,93.70
2022-09-24T08:51:12.802Z,91.50
2022-09-24T08:55:22.629Z,88.70
2022-09-24T08:59:31.665Z,87.00
2022-09-24T09:03:38.651Z,86.10
2022-09-24T09:07:51.544Z,88.40
2022-09-24T09:12:01.242Z,90.00
2022-09-24T09:16:16.112Z,89.60
2022-09-24T09:20:22.816Z,89.70
2022-09-24T09:24:36.766Z,90.30
2022-09-24T09:28:43.810Z,90.30
2022-09-24T09:33:10.149Z,88.90
2022-09-24T09:37:25.937Z,90.10
2022-09-24T09:41:35.558Z,90.20
2022-09-24T09:45:48.050Z,90.20
2022-09-24T09:49:54.308Z,90.20
2022-09-24T09:53:59.343Z,89.30
2022-09-24T09:58:12.580Z,87.60
2022-09-24T10:02:25.540Z,83.30
2022-09-24T10:06:31.350Z,79.00
2022-09-24T10:10:34.668Z,80.60
2022-09-24T10:14:37.967Z,82.70
2022-09-24T10:18:46.896Z,82.30
2022-09-24T10:22:53.630Z,81.50
2022-09-24T10:26:57.124Z,79.90
2022-09-24T10:31:05.790Z,75.90
2022-09-24T10:35:24.740Z,73.60
2022-09-24T10:39:27.949Z,71.40
2022-09-24T10:43:32.207Z,70.70
2022-09-24T10:47:47.563Z,67.50
2022-09-24T10:52:04.772Z,68.30
2022-09-24T10:56:20.753Z,66.40
2022-09-24T11:00:25.575Z,65.40
2022-09-24T11:04:48.576Z,64.90
2022-09-24T11:09:04.267Z,63.00
2022-09-24T11:13:23.484Z,61.60
2022-09-24T11:17:35.032Z,57.90
2022-09-24T11:21:58.014Z,58.80
2022-09-24T11:26:11.428Z,58.80
2022-09-24T11:30:17.528Z,61.80
2022-09-24T11:34:37.906Z,59.00
2022-09-24T11:38:58.458Z,62.30
2022-09-24T11:43:23.500Z,66.50
2022-09-24T11:47:39.092Z,71.10
2022-09-24T11:51:54.588Z,68.00
2022-09-24T11:56:02.651Z,64.90
2022-09-24T12:00:14.619Z,62.80
2022-09-24T12:04:22.650Z,64.50
2022-09-24T12:08:30.365Z,65.70
2022-09-24T12:12:38.984Z,66.10
2022-09-24T12:16:47.854Z,65.90
2022-09-24T12:20:55.459Z,65.20
2022-09-24T12:25:02.492Z,63.20
2022-09-24T12:29:39.523Z,64.20
2022-09-24T12:33:56.639Z,64.90
2022-09-24T12:38:10.209Z,65.60
2022-09-24T12:42:18.176Z,65.80
2022-09-24T12:46:24.619Z,66.50
2022-09-24T12:50:32.881Z,70.90
2022-09-24T12:54:38.006Z,65.60
2022-09-24T12:58:43.740Z,64.70
2022-09-24T13:02:49.030Z,62.00
2022-09-24T13:06:54.368Z,60.60
2022-09-24T13:11:00.656Z,56.20
2022-09-24T13:15:08.039Z,54.10
2022-09-24T13:19:31.363Z,52.70
2022-09-24T13:23:47.252Z,57.00
2022-09-24T13:28:02.579Z,66.50
2022-09-24T13:32:07.534Z,68.50
2022-09-24T13:36:17.144Z,66.40
2022-09-24T13:40:26.290Z,67.00
2022-09-24T13:44:34.677Z,65.60
2022-09-24T13:48:42.275Z,60.80
2022-09-24T13:52:50.466Z,57.80
2022-09-24T13:57:08.466Z,60.10
2022-09-24T14:01:23.064Z,62.30
2022-09-24T14:05:29.229Z,66.40
2022-09-24T14:09:34.293Z,68.60
2022-09-24T14:13:46.128Z,71.60
2022-09-24T14:17:57.739Z,73.60
2022-09-24T14:22:02.333Z,75.60
2022-09-24T14:26:06.695Z,77.30
2022-09-24T14:30:21.626Z,80.90
2022-09-24T14:34:29.021Z,82.20
2022-09-24T14:38:36.052Z,83.70
2022-09-24T14:42:43.977Z,86.50
2022-09-24T14:46:51.461Z,88.30
2022-09-24T14:50:55.910Z,85.30
2022-09-24T14:55:11.149Z,85.90
2022-09-24T14:59:16.629Z,85.10
2022-09-24T15:03:25.442Z,87.40
2022-09-24T15:07:30.731Z,90.10
2022-09-24T15:11:36.376Z,90.50
2022-09-24T15:15:40.506Z,92.30
2022-09-24T15:19:46.777Z,93.50
2022-09-24T15:23:49.957Z,93.90
2022-09-24T15:27:54.830Z,94.90
2022-09-24T15:31:59.388Z,95.40
2022-09-24T15:36:08.172Z,96.30
2022-09-24T15:40:22.961Z,97.40
2022-09-24T15:44:33.636Z,97.90
2022-09-24T15:48:37.639Z,98.80
2022-09-24T15:52:47.871Z,99.10
2022-09-24T15:56:52.677Z,99.90
2022-09-24T16:00:56.178Z,99.90
2022-09-24T16:05:03.882Z,99.90
2022-09-24T16:09:08.930Z,99.90
2022-09-24T16:13:13.010Z,99.90
2022-09-24T16:17:16.205Z,99.90
2022-09-24T16:21:19.703Z,99.90
2022-09-24T16:25:24.684Z,99.90
2022-09-24T16:29:31.171Z,99.90
2022-09-24T16:33:38.965Z,99.90
2022-09-24T16:37:42.373Z,99.90
2022-09-24T16:41:49.469Z,99.90
2022-09-24T16:45:52.849Z,99.90
2022-09-24T16:49:56.498Z,99.90
2022-09-24T16:53:59.907Z,99.90
2022-09-24T16:58:04.439Z,99.90
2022-09-24T17:02:08.593Z,99.90
2022-09-24T17:06:20.508Z,99.90
2022-09-24T17:10:24.301Z,99.90
2022-09-24T17:14:29.079Z,99.90
2022-09-24T17:18:32.290Z,99.90
2022-09-24T17:22:35.557Z,99.90
2022-09-24T17:26:40.940Z,99.90
2022-09-24T17:30:46.176Z,99.90
2022-09-24T17:34:50.084Z,99.90
2022-09-24T17:38:56.233Z,99.90
2022-09-24T17:42:59.624Z,99.90
2022-09-24T17:47:04.580Z,99.90
2022-09-24T17:51:10.980Z,99.90
2022-09-24T17:55:14.180Z,99.90
2022-09-24T17:59:17.581Z,99.90
2022-09-24T18:03:23.043Z,99.90
2022-09-24T18:07:27.901Z,99.90
2022-09-24T18:11:32.817Z,99.90
2022-09-24T18:15:38.147Z,99.90
2022-09-24T18:19:42.889Z,99.90
2022-09-24T18:23:46.842Z,99.90
2022-09-24T18:27:50.271Z,99.90
2022-09-24T18:31:58.345Z,99.90
2022-09-24T18:36:05.163Z,99.90
2022-09-24T18:40:12.854Z,99.90
2022-09-24T18:44:16.576Z,99.90
2022-09-24T18:48:20.611Z,99.90
2022-09-24T18:52:26.687Z,99.90
2022-09-24T18:56:36.338Z,99.90
2022-09-24T19:00:54.083Z,99.90
2022-09-24T19:04:57.693Z,99.90
2022-09-24T19:09:05.848Z,99.90
2022-09-24T19:13:09.503Z,99.90
2022-09-24T19:17:13.192Z,99.90
2022-09-24T19:21:17.212Z,99.90
2022-09-24T19:25:31.242Z,99.90
2022-09-24T19:29:34.817Z,99.90
2022-09-24T19:33:38.672Z,99.90
2022-09-24T19:37:46.440Z,99.90
2022-09-24T19:41:53.054Z,99.90
2022-09-24T19:45:59.442Z,99.90
2022-09-24T19:50:11.578Z,99.90
2022-09-24T19:54:17.038Z,99.90
2022-09-24T19:58:22.025Z,99.90
2022-09-24T20:02:27.963Z,99.90
2022-09-24T20:06:34.140Z,99.90
2022-09-24T20:10:38.825Z,99.90
2022-09-24T20:14:43.970Z,99.90
2022-09-24T20:18:47.938Z,99.90
2022-09-24T20:22:51.588Z,99.90
2022-09-24T20:27:13.643Z,99.90
2022-09-24T20:31:21.099Z,99.90
2022-09-24T20:35:24.687Z,99.90
2022-09-24T20:39:28.453Z,99.90
2022-09-24T20:43:34.357Z,99.90
2022-09-24T20:47:39.572Z,99.90
2022-09-24T20:51:44.354Z,99.90
2022-09-24T20:55:47.562Z,99.90
2022-09-24T20:59:52.909Z,99.90
2022-09-24T21:04:10.804Z,99.90
2022-09-24T21:08:16.910Z,99.90
2022-09-24T21:12:21.096Z,99.90
2022-09-24T21:16:26.586Z,99.90
2022-09-24T21:20:33.218Z,99.90
2022-09-24T21:24:36.375Z,99.90
2022-09-24T21:28:39.679Z,99.90
2022-09-24T21:32:42.935Z,99.90
2022-09-24T21:36:48.318Z,99.90
2022-09-24T21:40:54.661Z,99.90
2022-09-24T21:44:58.021Z,99.90
2022-09-24T21:49:02.365Z,99.90
2022-09-24T21:53:08.796Z,99.90
2022-09-24T21:57:12.145Z,99.90
2022-09-24T22:01:17.971Z,99.90
2022-09-24T22:05:21.815Z,99.90
2022-09-24T22:09:26.933Z,99.90
2022-09-24T22:13:31.135Z,99.90
2022-09-24T22:17:34.632Z,99.90
2022-09-24T22:21:38.274Z,99.90
2022-09-24T22:25:46.135Z,99.90
2022-09-24T22:29:55.384Z,99.90
2022-09-24T22:34:16.248Z,99.90
2022-09-24T22:38:20.610Z,99.90
2022-09-24T22:42:25.282Z,99.90
2022-09-24T22:46:28.540Z,99.90
2022-09-24T22:50:33.900Z,99.90
2022-09-24T22:54:37.063Z,99.90
2022-09-24T22:58:45.078Z,99.90
2022-09-24T23:02:48.292Z,99.90
2022-09-24T23:06:51.716Z,99.90
2022-09-24T23:10:54.967Z,99.90
2022-09-24T23:14:59.924Z,99.90
2022-09-24T23:19:05.355Z,99.90
2022-09-24T23:23:08.547Z,99.90
2022-09-24T23:27:12.042Z,99.90
2022-09-24T23:31:17.746Z,99.90
2022-09-24T23:35:21.441Z,99.90
2022-09-24T23:39:24.786Z,99.90
2022-09-24T23:43:28.537Z,99.90
2022-09-24T23:47:36.127Z,99.90
2022-09-24T23:51:39.518Z,99.90
2022-09-24T23:55:46.382Z,99.90
2022-09-24T23:59:50.632Z,99.90
